sensor_id;sensor_type;location;lat;lon;timestamp;P1;durP1;ratioP1;P2;durP2;ratioP2
20251;SDS011;10284;58.364;15.550;2023-08-06T00:00:21;4.07;;;2.50;;
20251;SDS011;10284;58.364;15.550;2023-08-06T00:02:47;3.97;;;2.90;;
20251;SDS011;10284;58.364;15.550;2023-08-06T00:05:13;3.78;;;2.60;;
20251;SDS011;10284;58.364;15.550;2023-08-06T00:07:42;9.13;;;2.83;;
20251;SDS011;10284;58.364;15.550;2023-08-06T00:10:08;6.85;;;2.50;;
20251;SDS011;10284;58.364;15.550;2023-08-06T00:12:34;8.05;;;3.03;;
20251;SDS011;10284;58.364;15.550;2023-08-06T00:14:59;4.53;;;2.70;;
20251;SDS011;10284;58.364;15.550;2023-08-06T00:17:25;5.50;;;2.28;;
20251;SDS011;10284;58.364;15.550;2023-08-06T00:19:50;7.07;;;3.10;;
20251;SDS011;10284;58.364;15.550;2023-08-06T00:22:15;5.38;;;2.70;;
20251;SDS011;10284;58.364;15.550;2023-08-06T00:24:41;4.78;;;2.50;;
20251;SDS011;10284;58.364;15.550;2023-08-06T00:27:06;5.50;;;3.03;;
20251;SDS011;10284;58.364;15.550;2023-08-06T00:29:32;7.53;;;2.47;;
20251;SDS011;10284;58.364;15.550;2023-08-06T00:31:57;9.25;;;2.38;;
20251;SDS011;10284;58.364;15.550;2023-08-06T00:34:23;4.93;;;2.50;;
20251;SDS011;10284;58.364;15.550;2023-08-06T00:36:48;6.47;;;2.75;;
20251;SDS011;10284;58.364;15.550;2023-08-06T00:39:13;6.03;;;2.20;;
20251;SDS011;10284;58.364;15.550;2023-08-06T00:41:39;5.15;;;2.53;;
20251;SDS011;10284;58.364;15.550;2023-08-06T00:44:04;3.30;;;2.80;;
20251;SDS011;10284;58.364;15.550;2023-08-06T00:46:30;5.68;;;2.28;;
20251;SDS011;10284;58.364;15.550;2023-08-06T00:48:56;4.68;;;2.70;;
20251;SDS011;10284;58.364;15.550;2023-08-06T00:51:22;8.20;;;2.88;;
20251;SDS011;10284;58.364;15.550;2023-08-06T00:53:48;3.20;;;2.33;;
20251;SDS011;10284;58.364;15.550;2023-08-06T00:56:15;4.10;;;2.20;;
20251;SDS011;10284;58.364;15.550;2023-08-06T00:58:40;3.83;;;2.20;;
20251;SDS011;10284;58.364;15.550;2023-08-06T01:01:06;8.40;;;2.05;;
20251;SDS011;10284;58.364;15.550;2023-08-06T01:03:31;5.07;;;2.08;;
20251;SDS011;10284;58.364;15.550;2023-08-06T01:05:57;6.18;;;2.17;;
20251;SDS011;10284;58.364;15.550;2023-08-06T01:11:25;4.75;;;2.78;;
20251;SDS011;10284;58.364;15.550;2023-08-06T01:13:59;3.67;;;2.70;;
20251;SDS011;10284;58.364;15.550;2023-08-06T01:16:27;4.10;;;2.70;;
20251;SDS011;10284;58.364;15.550;2023-08-06T01:18:54;3.25;;;2.40;;
20251;SDS011;10284;58.364;15.550;2023-08-06T01:21:19;6.72;;;2.42;;
20251;SDS011;10284;58.364;15.550;2023-08-06T01:23:45;6.28;;;2.50;;
20251;SDS011;10284;58.364;15.550;2023-08-06T01:28:48;6.05;;;2.45;;
20251;SDS011;10284;58.364;15.550;2023-08-06T01:31:24;2.55;;;2.33;;
20251;SDS011;10284;58.364;15.550;2023-08-06T01:33:52;2.97;;;2.30;;
20251;SDS011;10284;58.364;15.550;2023-08-06T01:36:18;4.50;;;2.45;;
20251;SDS011;10284;58.364;15.550;2023-08-06T01:38:44;3.55;;;2.53;;
20251;SDS011;10284;58.364;15.550;2023-08-06T01:41:10;3.30;;;2.30;;
20251;SDS011;10284;58.364;15.550;2023-08-06T01:43:35;4.47;;;3.08;;
20251;SDS011;10284;58.364;15.550;2023-08-06T01:46:00;2.28;;;2.08;;
20251;SDS011;10284;58.364;15.550;2023-08-06T01:48:26;8.63;;;2.58;;
20251;SDS011;10284;58.364;15.550;2023-08-06T01:50:51;7.45;;;2.40;;
20251;SDS011;10284;58.364;15.550;2023-08-06T01:53:17;3.42;;;2.55;;
20251;SDS011;10284;58.364;15.550;2023-08-06T01:55:47;6.20;;;2.67;;
20251;SDS011;10284;58.364;15.550;2023-08-06T01:58:13;4.97;;;2.53;;
20251;SDS011;10284;58.364;15.550;2023-08-06T02:00:38;6.55;;;2.70;;
20251;SDS011;10284;58.364;15.550;2023-08-06T02:03:03;5.38;;;2.83;;
20251;SDS011;10284;58.364;15.550;2023-08-06T02:05:29;5.90;;;2.90;;
20251;SDS011;10284;58.364;15.550;2023-08-06T02:07:54;3.38;;;2.90;;
20251;SDS011;10284;58.364;15.550;2023-08-06T02:10:20;4.63;;;2.95;;
20251;SDS011;10284;58.364;15.550;2023-08-06T02:12:45;3.67;;;2.42;;
20251;SDS011;10284;58.364;15.550;2023-08-06T02:15:10;5.93;;;2.97;;
20251;SDS011;10284;58.364;15.550;2023-08-06T02:17:36;4.30;;;2.70;;
20251;SDS011;10284;58.364;15.550;2023-08-06T02:20:01;3.30;;;2.75;;
20251;SDS011;10284;58.364;15.550;2023-08-06T02:22:27;4.70;;;2.92;;
20251;SDS011;10284;58.364;15.550;2023-08-06T02:24:53;5.18;;;2.70;;
20251;SDS011;10284;58.364;15.550;2023-08-06T02:27:18;7.07;;;2.60;;
20251;SDS011;10284;58.364;15.550;2023-08-06T02:29:44;6.00;;;2.75;;
20251;SDS011;10284;58.364;15.550;2023-08-06T02:32:09;7.68;;;2.90;;
20251;SDS011;10284;58.364;15.550;2023-08-06T02:34:35;6.13;;;2.70;;
20251;SDS011;10284;58.364;15.550;2023-08-06T02:37:00;5.07;;;2.63;;
20251;SDS011;10284;58.364;15.550;2023-08-06T02:39:26;4.40;;;2.83;;
20251;SDS011;10284;58.364;15.550;2023-08-06T02:41:51;3.38;;;2.50;;
20251;SDS011;10284;58.364;15.550;2023-08-06T02:44:16;6.13;;;2.47;;
20251;SDS011;10284;58.364;15.550;2023-08-06T02:46:43;3.13;;;2.20;;
20251;SDS011;10284;58.364;15.550;2023-08-06T02:49:09;5.25;;;2.33;;
20251;SDS011;10284;58.364;15.550;2023-08-06T02:51:35;5.28;;;2.95;;
20251;SDS011;10284;58.364;15.550;2023-08-06T02:54:00;5.32;;;2.28;;
20251;SDS011;10284;58.364;15.550;2023-08-06T02:56:26;3.85;;;2.25;;
20251;SDS011;10284;58.364;15.550;2023-08-06T02:58:51;7.20;;;2.10;;
20251;SDS011;10284;58.364;15.550;2023-08-06T03:01:16;6.70;;;1.95;;
20251;SDS011;10284;58.364;15.550;2023-08-06T03:03:42;8.23;;;2.30;;
20251;SDS011;10284;58.364;15.550;2023-08-06T03:06:07;11.18;;;2.42;;
20251;SDS011;10284;58.364;15.550;2023-08-06T03:08:33;8.35;;;2.40;;
20251;SDS011;10284;58.364;15.550;2023-08-06T03:10:58;4.57;;;2.45;;
20251;SDS011;10284;58.364;15.550;2023-08-06T03:13:24;5.32;;;2.08;;
20251;SDS011;10284;58.364;15.550;2023-08-06T03:15:53;3.78;;;2.28;;
20251;SDS011;10284;58.364;15.550;2023-08-06T03:18:19;3.78;;;2.63;;
20251;SDS011;10284;58.364;15.550;2023-08-06T03:20:44;9.20;;;2.22;;
20251;SDS011;10284;58.364;15.550;2023-08-06T03:23:10;7.25;;;2.20;;
20251;SDS011;10284;58.364;15.550;2023-08-06T03:25:35;4.30;;;2.25;;
20251;SDS011;10284;58.364;15.550;2023-08-06T03:28:02;3.53;;;1.70;;
20251;SDS011;10284;58.364;15.550;2023-08-06T03:30:27;5.03;;;2.03;;
20251;SDS011;10284;58.364;15.550;2023-08-06T03:32:52;3.25;;;2.20;;
20251;SDS011;10284;58.364;15.550;2023-08-06T03:35:18;3.60;;;1.70;;
20251;SDS011;10284;58.364;15.550;2023-08-06T03:37:43;3.25;;;1.80;;
20251;SDS011;10284;58.364;15.550;2023-08-06T03:40:09;2.50;;;2.22;;
20251;SDS011;10284;58.364;15.550;2023-08-06T03:42:35;3.22;;;1.65;;
20251;SDS011;10284;58.364;15.550;2023-08-06T03:45:00;2.30;;;2.10;;
20251;SDS011;10284;58.364;15.550;2023-08-06T03:47:26;2.10;;;1.90;;
20251;SDS011;10284;58.364;15.550;2023-08-06T03:49:51;5.78;;;2.25;;
20251;SDS011;10284;58.364;15.550;2023-08-06T03:52:16;4.95;;;2.10;;
20251;SDS011;10284;58.364;15.550;2023-08-06T03:54:42;3.95;;;2.78;;
20251;SDS011;10284;58.364;15.550;2023-08-06T03:57:08;8.43;;;2.53;;
20251;SDS011;10284;58.364;15.550;2023-08-06T03:59:34;3.60;;;2.08;;
20251;SDS011;10284;58.364;15.550;2023-08-06T04:01:59;5.18;;;2.20;;
20251;SDS011;10284;58.364;15.550;2023-08-06T04:04:24;5.90;;;2.50;;
20251;SDS011;10284;58.364;15.550;2023-08-06T04:06:50;8.25;;;2.15;;
20251;SDS011;10284;58.364;15.550;2023-08-06T04:09:15;6.97;;;1.90;;
20251;SDS011;10284;58.364;15.550;2023-08-06T04:11:41;4.40;;;2.33;;
20251;SDS011;10284;58.364;15.550;2023-08-06T04:14:06;3.15;;;2.00;;
20251;SDS011;10284;58.364;15.550;2023-08-06T04:16:32;4.03;;;2.25;;
20251;SDS011;10284;58.364;15.550;2023-08-06T04:18:57;3.20;;;2.80;;
20251;SDS011;10284;58.364;15.550;2023-08-06T04:21:23;4.53;;;3.08;;
20251;SDS011;10284;58.364;15.550;2023-08-06T04:23:48;5.68;;;2.95;;
20251;SDS011;10284;58.364;15.550;2023-08-06T04:26:14;4.97;;;3.47;;
20251;SDS011;10284;58.364;15.550;2023-08-06T04:28:39;7.40;;;3.90;;
20251;SDS011;10284;58.364;15.550;2023-08-06T04:31:05;5.57;;;3.83;;
20251;SDS011;10284;58.364;15.550;2023-08-06T04:33:30;5.65;;;3.60;;
20251;SDS011;10284;58.364;15.550;2023-08-06T04:35:56;7.03;;;3.92;;
20251;SDS011;10284;58.364;15.550;2023-08-06T04:38:23;4.45;;;3.75;;
20251;SDS011;10284;58.364;15.550;2023-08-06T04:40:50;7.88;;;4.32;;
20251;SDS011;10284;58.364;15.550;2023-08-06T04:43:15;6.93;;;4.45;;
20251;SDS011;10284;58.364;15.550;2023-08-06T04:45:51;10.77;;;4.30;;
20251;SDS011;10284;58.364;15.550;2023-08-06T04:48:18;7.60;;;4.80;;
20251;SDS011;10284;58.364;15.550;2023-08-06T04:50:44;11.10;;;6.03;;
20251;SDS011;10284;58.364;15.550;2023-08-06T04:53:10;8.95;;;5.68;;
20251;SDS011;10284;58.364;15.550;2023-08-06T04:55:36;8.23;;;5.53;;
20251;SDS011;10284;58.364;15.550;2023-08-06T04:58:01;8.65;;;4.78;;
20251;SDS011;10284;58.364;15.550;2023-08-06T05:00:27;13.77;;;5.57;;
20251;SDS011;10284;58.364;15.550;2023-08-06T05:02:52;9.15;;;5.00;;
20251;SDS011;10284;58.364;15.550;2023-08-06T05:05:17;9.77;;;5.88;;
20251;SDS011;10284;58.364;15.550;2023-08-06T05:07:43;9.85;;;5.65;;
20251;SDS011;10284;58.364;15.550;2023-08-06T05:10:08;11.07;;;6.00;;
20251;SDS011;10284;58.364;15.550;2023-08-06T05:12:34;11.18;;;6.30;;
20251;SDS011;10284;58.364;15.550;2023-08-06T05:14:59;10.05;;;6.13;;
20251;SDS011;10284;58.364;15.550;2023-08-06T05:17:25;10.73;;;6.65;;
20251;SDS011;10284;58.364;15.550;2023-08-06T05:19:50;12.20;;;7.63;;
20251;SDS011;10284;58.364;15.550;2023-08-06T05:22:16;11.40;;;7.10;;
20251;SDS011;10284;58.364;15.550;2023-08-06T05:24:41;12.15;;;7.47;;
20251;SDS011;10284;58.364;15.550;2023-08-06T05:27:06;17.38;;;8.43;;
20251;SDS011;10284;58.364;15.550;2023-08-06T05:29:32;14.13;;;7.57;;
20251;SDS011;10284;58.364;15.550;2023-08-06T05:31:57;12.77;;;6.72;;
20251;SDS011;10284;58.364;15.550;2023-08-06T05:34:23;12.63;;;7.53;;
20251;SDS011;10284;58.364;15.550;2023-08-06T05:36:48;13.20;;;8.18;;
20251;SDS011;10284;58.364;15.550;2023-08-06T05:39:13;12.38;;;7.90;;
20251;SDS011;10284;58.364;15.550;2023-08-06T05:41:39;10.45;;;6.63;;
20251;SDS011;10284;58.364;15.550;2023-08-06T05:44:04;11.20;;;7.50;;
20251;SDS011;10284;58.364;15.550;2023-08-06T05:46:30;12.25;;;8.10;;
20251;SDS011;10284;58.364;15.550;2023-08-06T05:48:55;11.23;;;7.03;;
20251;SDS011;10284;58.364;15.550;2023-08-06T05:51:20;11.57;;;8.13;;
20251;SDS011;10284;58.364;15.550;2023-08-06T05:53:46;14.27;;;7.30;;
20251;SDS011;10284;58.364;15.550;2023-08-06T05:56:12;9.63;;;7.25;;
20251;SDS011;10284;58.364;15.550;2023-08-06T05:58:37;11.10;;;7.20;;
20251;SDS011;10284;58.364;15.550;2023-08-06T06:01:03;12.02;;;6.85;;
20251;SDS011;10284;58.364;15.550;2023-08-06T06:03:28;10.48;;;5.90;;
20251;SDS011;10284;58.364;15.550;2023-08-06T06:05:53;13.02;;;6.97;;
20251;SDS011;10284;58.364;15.550;2023-08-06T06:08:19;9.82;;;7.03;;
20251;SDS011;10284;58.364;15.550;2023-08-06T06:10:44;13.48;;;7.30;;
20251;SDS011;10284;58.364;15.550;2023-08-06T06:13:10;12.95;;;7.22;;
20251;SDS011;10284;58.364;15.550;2023-08-06T06:15:35;16.63;;;7.25;;
20251;SDS011;10284;58.364;15.550;2023-08-06T06:18:01;11.80;;;7.63;;
20251;SDS011;10284;58.364;15.550;2023-08-06T06:20:26;13.10;;;7.45;;
20251;SDS011;10284;58.364;15.550;2023-08-06T06:22:52;12.43;;;8.23;;
20251;SDS011;10284;58.364;15.550;2023-08-06T06:25:17;12.05;;;7.53;;
20251;SDS011;10284;58.364;15.550;2023-08-06T06:27:43;12.65;;;6.97;;
20251;SDS011;10284;58.364;15.550;2023-08-06T06:30:08;10.88;;;6.38;;
20251;SDS011;10284;58.364;15.550;2023-08-06T06:32:34;11.25;;;6.28;;
20251;SDS011;10284;58.364;15.550;2023-08-06T06:34:59;8.52;;;5.78;;
20251;SDS011;10284;58.364;15.550;2023-08-06T06:37:25;12.25;;;6.00;;
20251;SDS011;10284;58.364;15.550;2023-08-06T06:39:50;8.55;;;5.00;;
20251;SDS011;10284;58.364;15.550;2023-08-06T06:42:16;6.55;;;3.78;;
20251;SDS011;10284;58.364;15.550;2023-08-06T06:44:41;5.00;;;3.80;;
20251;SDS011;10284;58.364;15.550;2023-08-06T06:47:07;5.57;;;3.15;;
20251;SDS011;10284;58.364;15.550;2023-08-06T06:49:32;5.97;;;2.80;;
20251;SDS011;10284;58.364;15.550;2023-08-06T06:51:58;4.85;;;2.22;;
20251;SDS011;10284;58.364;15.550;2023-08-06T06:54:23;4.65;;;2.42;;
20251;SDS011;10284;58.364;15.550;2023-08-06T06:56:48;3.47;;;2.00;;
20251;SDS011;10284;58.364;15.550;2023-08-06T06:59:14;4.65;;;2.30;;
20251;SDS011;10284;58.364;15.550;2023-08-06T07:01:39;3.47;;;2.08;;
20251;SDS011;10284;58.364;15.550;2023-08-06T07:04:05;2.13;;;1.88;;
20251;SDS011;10284;58.364;15.550;2023-08-06T07:06:31;5.88;;;2.03;;
20251;SDS011;10284;58.364;15.550;2023-08-06T07:08:56;6.65;;;2.17;;
20251;SDS011;10284;58.364;15.550;2023-08-06T07:11:22;4.03;;;1.90;;
20251;SDS011;10284;58.364;15.550;2023-08-06T07:13:49;6.65;;;1.95;;
20251;SDS011;10284;58.364;15.550;2023-08-06T07:16:15;2.75;;;1.50;;
20251;SDS011;10284;58.364;15.550;2023-08-06T07:18:40;5.22;;;1.58;;
20251;SDS011;10284;58.364;15.550;2023-08-06T07:21:06;3.33;;;1.33;;
20251;SDS011;10284;58.364;15.550;2023-08-06T07:23:31;3.13;;;1.40;;
20251;SDS011;10284;58.364;15.550;2023-08-06T07:25:57;3.17;;;1.50;;
20251;SDS011;10284;58.364;15.550;2023-08-06T07:28:22;4.28;;;1.35;;
20251;SDS011;10284;58.364;15.550;2023-08-06T07:30:48;4.07;;;1.65;;
20251;SDS011;10284;58.364;15.550;2023-08-06T07:33:13;2.25;;;1.08;;
20251;SDS011;10284;58.364;15.550;2023-08-06T07:35:39;4.78;;;1.52;;
20251;SDS011;10284;58.364;15.550;2023-08-06T07:38:04;2.63;;;1.50;;
20251;SDS011;10284;58.364;15.550;2023-08-06T07:40:30;2.53;;;1.45;;
20251;SDS011;10284;58.364;15.550;2023-08-06T07:42:55;1.98;;;1.25;;
20251;SDS011;10284;58.364;15.550;2023-08-06T07:45:21;4.00;;;1.55;;
20251;SDS011;10284;58.364;15.550;2023-08-06T07:47:46;2.72;;;1.40;;
20251;SDS011;10284;58.364;15.550;2023-08-06T07:50:12;2.85;;;1.60;;
20251;SDS011;10284;58.364;15.550;2023-08-06T07:52:38;3.25;;;1.30;;
20251;SDS011;10284;58.364;15.550;2023-08-06T07:55:04;3.05;;;1.50;;
20251;SDS011;10284;58.364;15.550;2023-08-06T07:57:32;3.03;;;1.30;;
20251;SDS011;10284;58.364;15.550;2023-08-06T07:59:58;3.42;;;1.60;;
20251;SDS011;10284;58.364;15.550;2023-08-06T08:02:24;7.97;;;1.88;;
20251;SDS011;10284;58.364;15.550;2023-08-06T08:04:50;3.92;;;1.75;;
20251;SDS011;10284;58.364;15.550;2023-08-06T08:07:15;5.88;;;1.83;;
20251;SDS011;10284;58.364;15.550;2023-08-06T08:09:41;6.45;;;1.70;;
20251;SDS011;10284;58.364;15.550;2023-08-06T08:12:06;3.30;;;1.70;;
20251;SDS011;10284;58.364;15.550;2023-08-06T08:14:32;4.15;;;2.20;;
20251;SDS011;10284;58.364;15.550;2023-08-06T08:17:01;3.70;;;2.20;;
20251;SDS011;10284;58.364;15.550;2023-08-06T08:19:30;3.35;;;1.88;;
20251;SDS011;10284;58.364;15.550;2023-08-06T08:21:56;5.00;;;1.52;;
20251;SDS011;10284;58.364;15.550;2023-08-06T08:24:22;2.25;;;1.73;;
20251;SDS011;10284;58.364;15.550;2023-08-06T08:26:53;2.90;;;1.50;;
20251;SDS011;10284;58.364;15.550;2023-08-06T08:29:19;4.18;;;1.90;;
20251;SDS011;10284;58.364;15.550;2023-08-06T08:31:45;3.83;;;1.70;;
20251;SDS011;10284;58.364;15.550;2023-08-06T08:34:10;2.03;;;1.65;;
20251;SDS011;10284;58.364;15.550;2023-08-06T08:36:35;5.43;;;1.75;;
20251;SDS011;10284;58.364;15.550;2023-08-06T08:39:01;6.55;;;1.70;;
20251;SDS011;10284;58.364;15.550;2023-08-06T08:41:29;4.45;;;1.48;;
20251;SDS011;10284;58.364;15.550;2023-08-06T08:43:56;4.43;;;1.77;;
20251;SDS011;10284;58.364;15.550;2023-08-06T08:46:23;5.90;;;1.77;;
20251;SDS011;10284;58.364;15.550;2023-08-06T08:48:51;3.30;;;1.65;;
20251;SDS011;10284;58.364;15.550;2023-08-06T08:51:17;5.50;;;2.03;;
20251;SDS011;10284;58.364;15.550;2023-08-06T08:53:42;2.20;;;1.60;;
20251;SDS011;10284;58.364;15.550;2023-08-06T08:56:09;2.70;;;1.55;;
20251;SDS011;10284;58.364;15.550;2023-08-06T08:58:37;2.67;;;1.80;;
20251;SDS011;10284;58.364;15.550;2023-08-06T09:01:02;6.43;;;1.58;;
20251;SDS011;10284;58.364;15.550;2023-08-06T09:03:28;3.65;;;1.80;;
20251;SDS011;10284;58.364;15.550;2023-08-06T09:05:54;6.53;;;1.92;;
20251;SDS011;10284;58.364;15.550;2023-08-06T09:08:21;3.13;;;1.85;;
20251;SDS011;10284;58.364;15.550;2023-08-06T09:10:50;3.13;;;1.85;;
20251;SDS011;10284;58.364;15.550;2023-08-06T09:13:17;2.92;;;1.75;;
20251;SDS011;10284;58.364;15.550;2023-08-06T09:15:42;4.53;;;1.80;;
20251;SDS011;10284;58.364;15.550;2023-08-06T09:18:09;5.57;;;1.50;;
20251;SDS011;10284;58.364;15.550;2023-08-06T09:20:36;7.00;;;1.85;;
20251;SDS011;10284;58.364;15.550;2023-08-06T09:23:09;2.55;;;1.63;;
20251;SDS011;10284;58.364;15.550;2023-08-06T09:25:36;2.70;;;1.35;;
20251;SDS011;10284;58.364;15.550;2023-08-06T09:28:03;2.95;;;1.52;;
20251;SDS011;10284;58.364;15.550;2023-08-06T09:30:32;2.95;;;1.60;;
20251;SDS011;10284;58.364;15.550;2023-08-06T09:32:59;3.00;;;1.83;;
20251;SDS011;10284;58.364;15.550;2023-08-06T09:35:24;5.53;;;1.90;;
20251;SDS011;10284;58.364;15.550;2023-08-06T09:37:52;1.90;;;1.50;;
20251;SDS011;10284;58.364;15.550;2023-08-06T09:40:28;5.38;;;2.10;;
20251;SDS011;10284;58.364;15.550;2023-08-06T09:42:55;6.30;;;1.73;;
20251;SDS011;10284;58.364;15.550;2023-08-06T09:45:21;5.15;;;1.90;;
20251;SDS011;10284;58.364;15.550;2023-08-06T09:47:49;2.15;;;1.65;;
20251;SDS011;10284;58.364;15.550;2023-08-06T09:50:16;4.93;;;1.80;;
20251;SDS011;10284;58.364;15.550;2023-08-06T09:52:45;4.25;;;1.80;;
20251;SDS011;10284;58.364;15.550;2023-08-06T09:55:12;2.72;;;1.52;;
20251;SDS011;10284;58.364;15.550;2023-08-06T09:57:39;4.68;;;2.08;;
20251;SDS011;10284;58.364;15.550;2023-08-06T10:00:06;2.65;;;1.67;;
20251;SDS011;10284;58.364;15.550;2023-08-06T10:02:34;7.72;;;1.50;;
20251;SDS011;10284;58.364;15.550;2023-08-06T10:05:01;3.08;;;1.83;;
20251;SDS011;10284;58.364;15.550;2023-08-06T10:07:28;3.30;;;1.80;;
20251;SDS011;10284;58.364;15.550;2023-08-06T10:09:55;3.60;;;1.77;;
20251;SDS011;10284;58.364;15.550;2023-08-06T10:12:21;4.68;;;1.95;;
20251;SDS011;10284;58.364;15.550;2023-08-06T10:14:47;4.10;;;1.77;;
20251;SDS011;10284;58.364;15.550;2023-08-06T10:17:13;4.93;;;1.70;;
20251;SDS011;10284;58.364;15.550;2023-08-06T10:19:38;5.63;;;2.00;;
20251;SDS011;10284;58.364;15.550;2023-08-06T10:22:13;2.78;;;1.70;;
20251;SDS011;10284;58.364;15.550;2023-08-06T10:24:49;2.60;;;1.70;;
20251;SDS011;10284;58.364;15.550;2023-08-06T10:29:47;3.00;;;1.63;;
20251;SDS011;10284;58.364;15.550;2023-08-06T10:32:12;3.50;;;1.80;;
20251;SDS011;10284;58.364;15.550;2023-08-06T10:37:22;3.97;;;1.88;;
20251;SDS011;10284;58.364;15.550;2023-08-06T10:39:51;3.50;;;1.70;;
20251;SDS011;10284;58.364;15.550;2023-08-06T10:42:26;3.03;;;1.92;;
20251;SDS011;10284;58.364;15.550;2023-08-06T10:47:41;5.00;;;1.60;;
20251;SDS011;10284;58.364;15.550;2023-08-06T10:50:14;2.70;;;1.90;;
20251;SDS011;10284;58.364;15.550;2023-08-06T10:52:46;4.95;;;2.13;;
20251;SDS011;10284;58.364;15.550;2023-08-06T10:55:12;6.47;;;1.73;;
20251;SDS011;10284;58.364;15.550;2023-08-06T10:57:38;6.28;;;2.33;;
20251;SDS011;10284;58.364;15.550;2023-08-06T11:00:04;3.80;;;1.90;;
20251;SDS011;10284;58.364;15.550;2023-08-06T11:02:35;5.45;;;2.10;;
20251;SDS011;10284;58.364;15.550;2023-08-06T11:05:04;2.88;;;1.75;;
20251;SDS011;10284;58.364;15.550;2023-08-06T11:07:33;4.53;;;2.20;;
20251;SDS011;10284;58.364;15.550;2023-08-06T11:10:06;4.28;;;2.10;;
20251;SDS011;10284;58.364;15.550;2023-08-06T11:12:32;3.83;;;1.90;;
20251;SDS011;10284;58.364;15.550;2023-08-06T11:14:59;2.90;;;1.88;;
20251;SDS011;10284;58.364;15.550;2023-08-06T11:17:25;4.05;;;2.20;;
20251;SDS011;10284;58.364;15.550;2023-08-06T11:19:52;5.55;;;2.08;;
20251;SDS011;10284;58.364;15.550;2023-08-06T11:22:19;5.07;;;1.85;;
20251;SDS011;10284;58.364;15.550;2023-08-06T11:24:45;3.15;;;1.98;;
20251;SDS011;10284;58.364;15.550;2023-08-06T11:27:14;7.03;;;2.20;;
20251;SDS011;10284;58.364;15.550;2023-08-06T11:29:41;6.78;;;2.13;;
20251;SDS011;10284;58.364;15.550;2023-08-06T11:32:07;5.93;;;2.45;;
20251;SDS011;10284;58.364;15.550;2023-08-06T11:34:33;4.05;;;2.22;;
20251;SDS011;10284;58.364;15.550;2023-08-06T11:36:59;4.28;;;2.30;;
20251;SDS011;10284;58.364;15.550;2023-08-06T11:39:24;3.83;;;2.30;;
20251;SDS011;10284;58.364;15.550;2023-08-06T11:41:50;3.40;;;2.42;;
20251;SDS011;10284;58.364;15.550;2023-08-06T11:44:16;6.22;;;2.50;;
20251;SDS011;10284;58.364;15.550;2023-08-06T11:46:54;8.00;;;3.40;;
20251;SDS011;10284;58.364;15.550;2023-08-06T11:52:23;8.25;;;3.20;;
20251;SDS011;10284;58.364;15.550;2023-08-06T11:55:05;7.65;;;4.03;;
20251;SDS011;10284;58.364;15.550;2023-08-06T11:57:33;10.02;;;3.67;;
20251;SDS011;10284;58.364;15.550;2023-08-06T12:00:06;7.20;;;3.80;;
20251;SDS011;10284;58.364;15.550;2023-08-06T12:02:33;5.50;;;3.45;;
20251;SDS011;10284;58.364;15.550;2023-08-06T12:05:12;10.20;;;3.55;;
20251;SDS011;10284;58.364;15.550;2023-08-06T12:07:40;12.75;;;4.10;;
20251;SDS011;10284;58.364;15.550;2023-08-06T12:10:15;7.13;;;3.58;;
20251;SDS011;10284;58.364;15.550;2023-08-06T12:12:41;9.07;;;3.90;;
20251;SDS011;10284;58.364;15.550;2023-08-06T12:15:07;9.85;;;3.53;;
20251;SDS011;10284;58.364;15.550;2023-08-06T12:17:34;7.03;;;3.60;;
20251;SDS011;10284;58.364;15.550;2023-08-06T12:20:00;11.98;;;3.42;;
20251;SDS011;10284;58.364;15.550;2023-08-06T12:22:25;8.35;;;4.35;;
20251;SDS011;10284;58.364;15.550;2023-08-06T12:24:51;12.68;;;4.30;;
20251;SDS011;10284;58.364;15.550;2023-08-06T12:27:16;16.20;;;5.75;;
20251;SDS011;10284;58.364;15.550;2023-08-06T12:29:43;8.88;;;4.07;;
20251;SDS011;10284;58.364;15.550;2023-08-06T12:32:11;9.88;;;4.68;;
20251;SDS011;10284;58.364;15.550;2023-08-06T12:34:38;12.50;;;4.50;;
20251;SDS011;10284;58.364;15.550;2023-08-06T12:37:04;14.32;;;4.72;;
20251;SDS011;10284;58.364;15.550;2023-08-06T12:39:29;11.00;;;4.53;;
20251;SDS011;10284;58.364;15.550;2023-08-06T12:41:56;13.80;;;5.20;;
20251;SDS011;10284;58.364;15.550;2023-08-06T12:44:22;12.65;;;4.65;;
20251;SDS011;10284;58.364;15.550;2023-08-06T12:46:49;11.88;;;4.47;;
20251;SDS011;10284;58.364;15.550;2023-08-06T12:49:15;11.07;;;4.95;;
20251;SDS011;10284;58.364;15.550;2023-08-06T12:51:40;12.15;;;4.95;;
20251;SDS011;10284;58.364;15.550;2023-08-06T12:54:05;9.10;;;4.55;;
20251;SDS011;10284;58.364;15.550;2023-08-06T12:56:31;12.98;;;4.97;;
20251;SDS011;10284;58.364;15.550;2023-08-06T12:58:56;11.57;;;4.93;;
20251;SDS011;10284;58.364;15.550;2023-08-06T13:01:22;11.80;;;4.47;;
20251;SDS011;10284;58.364;15.550;2023-08-06T13:03:47;7.68;;;4.45;;
20251;SDS011;10284;58.364;15.550;2023-08-06T13:06:13;14.02;;;4.32;;
20251;SDS011;10284;58.364;15.550;2023-08-06T13:08:38;9.80;;;4.50;;
20251;SDS011;10284;58.364;15.550;2023-08-06T13:11:04;13.70;;;5.20;;
20251;SDS011;10284;58.364;15.550;2023-08-06T13:13:30;13.20;;;4.78;;
20251;SDS011;10284;58.364;15.550;2023-08-06T13:15:55;12.10;;;5.30;;
20251;SDS011;10284;58.364;15.550;2023-08-06T13:18:20;7.63;;;4.55;;
20251;SDS011;10284;58.364;15.550;2023-08-06T13:20:46;9.40;;;4.32;;
20251;SDS011;10284;58.364;15.550;2023-08-06T13:23:14;15.05;;;4.78;;
20251;SDS011;10284;58.364;15.550;2023-08-06T13:25:41;10.93;;;3.83;;
20251;SDS011;10284;58.364;15.550;2023-08-06T13:28:07;9.98;;;3.97;;
20251;SDS011;10284;58.364;15.550;2023-08-06T13:30:32;8.88;;;3.92;;
20251;SDS011;10284;58.364;15.550;2023-08-06T13:32:59;10.43;;;3.95;;
20251;SDS011;10284;58.364;15.550;2023-08-06T13:35:25;10.27;;;4.57;;
20251;SDS011;10284;58.364;15.550;2023-08-06T13:37:51;14.70;;;3.65;;
20251;SDS011;10284;58.364;15.550;2023-08-06T13:40:16;10.60;;;4.28;;
20251;SDS011;10284;58.364;15.550;2023-08-06T13:42:41;6.63;;;3.85;;
20251;SDS011;10284;58.364;15.550;2023-08-06T13:45:07;9.25;;;3.65;;
20251;SDS011;10284;58.364;15.550;2023-08-06T13:47:32;7.07;;;3.55;;
20251;SDS011;10284;58.364;15.550;2023-08-06T13:49:58;11.13;;;4.10;;
20251;SDS011;10284;58.364;15.550;2023-08-06T13:52:25;6.43;;;3.67;;
20251;SDS011;10284;58.364;15.550;2023-08-06T13:54:51;9.77;;;4.07;;
20251;SDS011;10284;58.364;15.550;2023-08-06T13:57:16;8.40;;;3.58;;
20251;SDS011;10284;58.364;15.550;2023-08-06T13:59:45;12.95;;;4.25;;
20251;SDS011;10284;58.364;15.550;2023-08-06T14:02:10;13.68;;;4.00;;
20251;SDS011;10284;58.364;15.550;2023-08-06T14:04:36;10.70;;;3.63;;
20251;SDS011;10284;58.364;15.550;2023-08-06T14:07:02;9.27;;;4.13;;
20251;SDS011;10284;58.364;15.550;2023-08-06T14:09:28;9.30;;;4.22;;
20251;SDS011;10284;58.364;15.550;2023-08-06T14:11:54;9.50;;;4.38;;
20251;SDS011;10284;58.364;15.550;2023-08-06T14:14:19;8.77;;;4.50;;
20251;SDS011;10284;58.364;15.550;2023-08-06T14:16:51;5.30;;;3.85;;
20251;SDS011;10284;58.364;15.550;2023-08-06T14:19:16;10.15;;;4.38;;
20251;SDS011;10284;58.364;15.550;2023-08-06T14:21:42;9.75;;;4.72;;
20251;SDS011;10284;58.364;15.550;2023-08-06T14:24:07;11.00;;;4.72;;
20251;SDS011;10284;58.364;15.550;2023-08-06T14:26:33;8.68;;;4.53;;
20251;SDS011;10284;58.364;15.550;2023-08-06T14:28:58;12.13;;;5.25;;
20251;SDS011;10284;58.364;15.550;2023-08-06T14:31:24;13.25;;;5.13;;
20251;SDS011;10284;58.364;15.550;2023-08-06T14:33:49;10.40;;;5.32;;
20251;SDS011;10284;58.364;15.550;2023-08-06T14:36:14;11.68;;;5.13;;
20251;SDS011;10284;58.364;15.550;2023-08-06T14:38:40;16.35;;;5.78;;
20251;SDS011;10284;58.364;15.550;2023-08-06T14:41:05;11.63;;;5.45;;